Terminal Aerodrome Forecast
Issued by NWS Missoula, MT

Home | Current Version | Previous Version | Text Only | Print | Product List | Glossary On
Versions: 1 2 3 4 5 6 7 8 9 10 11 12 13 14 15 16 17
000
FTUS45 KMSO 232320
TAFMSO
TAF
KMSO 232320Z 2400/2424 21008KT P6SM VCSH BKN070
     FM240400 32007KT P6SM -SHRA OVC040
     FM240800 VRB04KT 6SM -RA BR BKN030 OVC050
     FM241500 28005KT P6SM VCSH BKN050=

USA.gov is the U.S. government's official web portal to all federal, state and local government web resources and services.